Time;durP1;ratioP1;P1;durP2;ratioP2;P2;SDS_P1;SDS_P2;PMS_P1;PMS_P2;Temp;Humidity;BMP_temperature;BMP_pressure;BME280_temperature;BME280_humidity;BME280_pressure;Samples;Min_cycle;Max_cycle;Signal;HPM_P1;HPM_P2
2023/09/03 00:02:04;;;;;;;1.00;0.70;;;;;;;20.91;78.88;102313.06;21079543;28;20297;-73
2023/09/03 00:12:07;;;;;;;0.90;0.80;;;;;;;20.88;78.52;102332.28;21078224;28;20113;-73
2023/09/03 00:22:08;;;;;;;1.48;0.70;;;;;;;20.86;78.28;102329.69;21077664;28;20495;-73
2023/09/03 00:32:10;;;;;;;0.82;0.70;;;;;;;20.85;77.82;102306.31;21076916;28;20389;-73
2023/09/03 00:42:12;;;;;;;1.25;1.00;;;;;;;20.82;77.66;102302.00;21075230;28;20051;-73
2023/09/03 00:52:18;;;;;;;1.73;1.10;;;;;;;20.80;77.34;102300.41;21075234;28;20052;-73
2023/09/03 01:02:21;;;;;;;2.15;0.95;;;;;;;20.78;77.09;102337.53;21072951;28;20044;-73
2023/09/03 01:12:31;;;;;;;2.17;1.08;;;;;;;20.72;76.94;102339.72;21073026;28;20062;-73
2023/09/03 01:22:57;;;;;;;0.70;0.70;;;;;;;20.80;77.47;102341.03;21055258;28;20066;-73
2023/09/03 01:32:59;;;;;;;1.08;0.77;;;;;;;20.82;77.22;102311.97;21071611;28;20055;-73
2023/09/03 01:43:01;;;;;;;0.73;0.73;;;;;;;20.83;76.80;102313.72;21071528;28;20056;-73
2023/09/03 01:53:10;;;;;;;0.70;0.70;;;;;;;20.76;76.64;102286.22;21071705;28;20059;-73
2023/09/03 02:03:13;;;;;;;1.88;1.00;;;;;;;20.82;76.25;102274.09;21070561;28;20085;-73
2023/09/03 02:13:14;;;;;;;0.70;0.70;;;;;;;20.80;75.95;102260.66;21070396;28;20044;-73
2023/09/03 02:23:16;;;;;;;0.73;0.70;;;;;;;20.78;75.86;102250.94;21085142;28;20329;-73
2023/09/03 02:33:18;;;;;;;1.42;0.80;;;;;;;20.78;75.49;102259.91;21086375;28;20056;-73
2023/09/03 02:43:22;;;;;;;1.58;1.10;;;;;;;20.76;75.34;102274.53;21084126;28;20398;-73
2023/09/03 02:53:24;;;;;;;1.90;1.00;;;;;;;20.73;75.14;102300.84;21084476;28;20055;-73
2023/09/03 03:03:26;;;;;;;0.77;0.77;;;;;;;20.73;74.92;102310.81;21083879;28;20056;-73
2023/09/03 03:13:27;;;;;;;1.23;0.90;;;;;;;20.71;74.69;102310.94;21084110;28;20056;-73
2023/09/03 03:23:29;;;;;;;0.63;0.63;;;;;;;20.71;74.48;102293.84;21093923;28;20533;-73
2023/09/03 03:33:31;;;;;;;0.80;0.68;;;;;;;20.66;74.39;102290.66;21113992;28;20120;-73
2023/09/03 03:43:34;;;;;;;0.80;0.80;;;;;;;20.66;73.86;102305.03;21105574;28;20056;-73
2023/09/03 03:53:36;;;;;;;0.77;0.75;;;;;;;20.65;73.84;102303.31;21107648;28;20055;-71
2023/09/03 04:03:40;;;;;;;0.73;0.73;;;;;;;20.62;73.57;102300.00;21114335;28;20049;-73
2023/09/03 04:13:42;;;;;;;1.42;0.90;;;;;;;20.58;72.84;102312.88;21072510;28;20535;-73
2023/09/03 04:23:44;;;;;;;0.82;0.82;;;;;;;20.54;72.77;102325.78;21080515;28;20074;-73
2023/09/03 04:33:46;;;;;;;0.70;0.70;;;;;;;20.53;72.67;102361.09;21075672;28;20113;-73
2023/09/03 04:43:48;;;;;;;0.73;0.70;;;;;;;20.52;72.17;102370.19;21075572;28;20169;-73
2023/09/03 04:53:54;;;;;;;0.70;0.70;;;;;;;20.49;72.01;102387.50;21073453;28;20071;-73
2023/09/03 05:03:56;;;;;;;1.30;0.85;;;;;;;20.48;71.84;102407.41;21074260;28;20048;-73
2023/09/03 05:13:59;;;;;;;1.20;1.10;;;;;;;20.47;71.47;102421.06;21072666;28;20261;-73
2023/09/03 05:24:03;;;;;;;1.00;0.90;;;;;;;20.46;71.24;102427.47;21071736;28;20072;-73
2023/09/03 05:34:05;;;;;;;1.15;1.00;;;;;;;20.43;70.96;102434.84;21073207;28;20059;-73
2023/09/03 05:44:09;;;;;;;0.85;0.85;;;;;;;20.43;70.96;102439.38;21070243;28;20055;-73
2023/09/03 05:54:12;;;;;;;1.02;0.80;;;;;;;20.41;70.86;102447.63;21078499;28;20064;-73
2023/09/03 06:04:16;;;;;;;0.70;0.70;;;;;;;20.41;70.99;102453.03;21088205;28;20404;-73
2023/09/03 06:14:18;;;;;;;0.83;0.70;;;;;;;20.46;71.84;102451.81;21086330;28;20048;-73
2023/09/03 06:24:20;;;;;;;0.60;0.60;;;;;;;20.50;72.28;102453.31;21086929;28;20056;-73
2023/09/03 06:34:22;;;;;;;0.50;0.50;;;;;;;20.49;72.34;102451.56;21086252;28;20055;-73
2023/09/03 06:44:25;;;;;;;0.70;0.60;;;;;;;20.56;72.38;102455.53;21084814;28;20076;-73
2023/09/03 06:54:28;;;;;;;0.63;0.63;;;;;;;20.58;72.49;102461.69;21085210;28;20056;-73
2023/09/03 07:04:29;;;;;;;0.52;0.52;;;;;;;20.62;72.74;102465.88;21084410;28;20305;-73
2023/09/03 07:14:32;;;;;;;0.65;0.65;;;;;;;20.70;73.38;102493.22;21082480;28;20056;-73
2023/09/03 07:24:34;;;;;;;0.45;0.40;;;;;;;20.79;73.85;102486.28;21082982;28;20496;-73
2023/09/03 07:34:36;;;;;;;0.75;0.50;;;;;;;20.89;74.29;102481.06;21081632;28;20155;-73
2023/09/03 07:44:39;;;;;;;1.50;0.60;;;;;;;20.98;74.93;102496.56;21080432;28;20056;-73
2023/09/03 07:54:41;;;;;;;0.60;0.60;;;;;;;21.11;75.23;102504.63;21080138;28;20091;-73
2023/09/03 08:04:43;;;;;;;0.45;0.45;;;;;;;21.20;75.34;102513.84;21078664;28;20121;-73
2023/09/03 08:14:48;;;;;;;1.52;0.60;;;;;;;21.24;75.45;102507.25;21078269;28;20538;-73
2023/09/03 08:24:50;;;;;;;0.77;0.73;;;;;;;21.28;75.70;102519.56;21105494;28;20883;-73
2023/09/03 08:34:53;;;;;;;0.90;0.90;;;;;;;21.33;75.78;102526.47;21158727;28;20051;-73
2023/09/03 08:45:03;;;;;;;2.00;0.95;;;;;;;21.37;75.67;102527.94;21161294;28;20425;-72
2023/09/03 08:55:06;;;;;;;0.45;0.45;;;;;;;21.42;75.92;102539.28;21158538;28;20047;-73
2023/09/03 09:05:09;;;;;;;2.25;0.90;;;;;;;21.44;75.84;102546.31;21158091;28;20055;-73
2023/09/03 09:15:11;;;;;;;0.60;0.60;;;;;;;21.48;76.02;102554.22;21131997;28;20520;-72
2023/09/03 09:25:22;;;;;;;0.77;0.50;;;;;;;21.51;76.20;102553.97;21063619;28;20492;-70
2023/09/03 09:35:25;;;;;;;0.63;0.52;;;;;;;21.52;76.08;102545.72;21085939;28;20122;-71
2023/09/03 09:45:27;;;;;;;1.55;0.70;;;;;;;21.59;76.33;102565.91;21093143;28;20112;-71
2023/09/03 09:55:32;;;;;;;0.57;0.50;;;;;;;21.63;76.36;102565.66;21086275;28;20122;-71
2023/09/03 10:05:34;;;;;;;;;;;;;;;21.66;76.25;102577.19;21081916;28;20052;-71
2023/09/03 10:15:35;;;;;;;2.60;0.70;;;;;;;21.69;76.49;102578.81;21047760;28;19920;-71
2023/09/03 10:25:37;;;;;;;0.50;0.50;;;;;;;21.73;76.70;102593.84;21043225;28;20419;-71
2023/09/03 10:35:39;;;;;;;0.70;0.60;;;;;;;21.81;76.71;102591.38;21095699;28;20082;-72
2023/09/03 10:46:07;;;;;;;0.85;0.50;;;;;;;21.92;76.21;102576.09;21085881;28;20052;-70
2023/09/03 10:56:13;;;;;;;0.88;0.50;;;;;;;22.00;76.10;102579.06;21097893;28;20705;-70
2023/09/03 11:06:20;;;;;;;2.53;1.20;;;;;;;22.07;76.11;102595.69;21085949;28;20056;-71
2023/09/03 11:16:26;;;;;;;2.03;0.80;;;;;;;22.11;75.78;102592.63;21089158;28;20051;-71
2023/09/03 11:26:33;;;;;;;0.70;0.70;;;;;;;22.15;75.48;102594.13;21104946;28;20073;-71
2023/09/03 11:36:34;;;;;;;0.90;0.70;;;;;;;22.21;75.70;102581.03;21095786;28;20048;-71
2023/09/03 11:46:36;;;;;;;1.33;0.70;;;;;;;22.23;75.38;102576.34;21100029;28;20044;-70
2023/09/03 11:56:38;;;;;;;0.88;0.60;;;;;;;22.26;75.66;102576.09;21086797;28;20499;-69
2023/09/03 12:06:40;;;;;;;0.82;0.63;;;;;;;22.27;75.58;102569.69;21101789;28;20039;-68
2023/09/03 12:16:46;;;;;;;0.80;0.60;;;;;;;22.27;75.71;102548.81;21080683;28;20105;-68
2023/09/03 12:26:48;;;;;;;0.70;0.70;;;;;;;22.30;75.86;102574.84;21068345;28;20492;-71
2023/09/03 12:36:55;;;;;;;0.73;0.50;;;;;;;22.28;75.41;102571.41;21053350;28;20066;-70
2023/09/03 12:46:58;;;;;;;1.73;0.60;;;;;;;22.29;75.34;102562.28;21061994;28;20058;-71
2023/09/03 12:57:00;;;;;;;1.42;0.60;;;;;;;22.29;74.90;102557.69;21053495;28;20079;-71
2023/09/03 13:07:02;;;;;;;0.57;0.52;;;;;;;22.30;75.10;102559.44;21049069;28;20561;-71
2023/09/03 13:17:07;;;;;;;1.60;0.60;;;;;;;22.33;75.74;102549.34;21052204;28;20090;-68
2023/09/03 13:27:09;;;;;;;2.03;0.88;;;;;;;22.34;75.48;102565.47;21048425;28;20125;-70
2023/09/03 13:37:11;;;;;;;0.93;0.60;;;;;;;22.33;75.57;102544.75;21071042;28;20675;-75
2023/09/03 13:47:13;;;;;;;0.73;0.70;;;;;;;22.32;75.76;102540.31;21069717;28;20537;-71
2023/09/03 13:57:15;;;;;;;1.50;0.70;;;;;;;22.33;75.40;102543.91;21081457;28;20047;-73
2023/09/03 14:07:18;;;;;;;0.60;0.52;;;;;;;22.34;75.91;102532.06;21079827;28;20052;-72
2023/09/03 14:17:23;;;;;;;1.05;0.75;;;;;;;22.30;75.96;102526.03;21084526;28;20050;-73
2023/09/03 14:27:25;;;;;;;1.05;0.63;;;;;;;22.34;76.01;102537.50;21089833;28;20055;-74
2023/09/03 14:37:27;;;;;;;1.08;0.55;;;;;;;22.41;75.82;102538.72;21094065;28;20048;-72
2023/09/03 14:47:29;;;;;;;1.77;0.60;;;;;;;22.43;76.22;102531.31;21080312;28;20048;-75
2023/09/03 14:57:31;;;;;;;0.50;0.50;;;;;;;22.43;76.32;102523.16;21106853;28;20059;-75
2023/09/03 15:07:33;;;;;;;1.02;0.65;;;;;;;22.44;76.48;102535.75;21082701;28;20052;-72
2023/09/03 15:17:35;;;;;;;1.27;0.70;;;;;;;22.41;76.38;102523.28;21099003;28;20113;-68
2023/09/03 15:27:37;;;;;;;2.17;1.30;;;;;;;22.38;76.52;102526.25;21090176;28;20059;-68
2023/09/03 15:37:38;;;;;;;2.83;1.38;;;;;;;22.37;77.92;102521.81;21096324;28;20525;-71
2023/09/03 15:47:40;;;;;;;2.80;1.25;;;;;;;22.38;79.34;102525.41;21099721;28;20559;-69
2023/09/03 15:57:42;;;;;;;1.67;0.93;;;;;;;22.42;82.29;102516.00;21084176;28;20056;-69
2023/09/03 16:07:44;;;;;;;0.80;0.80;;;;;;;22.49;83.02;102519.09;21093998;28;20056;-70
2023/09/03 16:17:46;;;;;;;1.52;0.82;;;;;;;22.50;83.33;102548.84;21061627;28;20499;-69
2023/09/03 16:27:47;;;;;;;1.92;0.80;;;;;;;22.52;83.27;102554.13;21062005;28;20048;-67
2023/09/03 16:37:50;;;;;;;0.73;0.70;;;;;;;22.50;83.25;102548.84;21064193;28;20055;-70
2023/09/03 16:47:51;;;;;;;1.35;1.00;;;;;;;22.49;83.32;102557.09;21061852;28;20067;-70
2023/09/03 16:57:53;;;;;;;1.30;0.70;;;;;;;22.39;83.00;102536.09;21069273;28;20125;-70
2023/09/03 17:07:56;;;;;;;1.15;0.63;;;;;;;22.41;82.96;102550.41;21074862;28;20129;-70
2023/09/03 17:18:00;;;;;;;;;;;;;;;22.39;82.36;102556.97;21071425;28;20066;-70
2023/09/03 17:28:04;;;;;;;1.00;0.90;;;;;;;22.34;82.26;102549.19;21081962;28;19977;-71
2023/09/03 17:38:05;;;;;;;0.88;0.70;;;;;;;22.30;82.44;102548.56;21094690;28;20059;-69
2023/09/03 17:48:08;;;;;;;1.00;0.70;;;;;;;22.25;81.93;102549.97;21074133;28;20158;-70
2023/09/03 17:58:10;;;;;;;1.08;0.73;;;;;;;22.19;82.17;102553.16;21085888;28;20676;-70
2023/09/03 18:08:12;;;;;;;0.70;0.60;;;;;;;22.14;82.30;102538.13;21078741;28;20427;-70
2023/09/03 18:18:14;;;;;;;0.80;0.60;;;;;;;22.10;82.02;102536.66;21060561;28;20048;-70
2023/09/03 18:28:15;;;;;;;1.45;0.60;;;;;;;22.02;82.22;102529.13;21068340;28;20123;-70
2023/09/03 18:38:17;;;;;;;1.35;0.80;;;;;;;22.05;82.42;102529.88;21074168;28;20043;-70
2023/09/03 18:48:19;;;;;;;1.80;0.80;;;;;;;22.03;82.46;102530.00;21104960;28;20048;-70
2023/09/03 18:58:21;;;;;;;1.38;0.88;;;;;;;21.99;82.43;102539.34;21096304;28;20492;-70
2023/09/03 19:08:23;;;;;;;1.85;0.80;;;;;;;21.93;82.24;102548.88;21110289;28;20076;-70
2023/09/03 19:18:25;;;;;;;2.83;1.65;;;;;;;21.89;82.31;102555.53;21101298;27;20038;-70
2023/09/03 19:28:27;;;;;;;2.40;1.20;;;;;;;21.85;84.72;102541.34;21113590;28;20063;-70
2023/09/03 19:38:32;;;;;;;2.28;1.35;;;;;;;21.84;84.80;102547.75;21113367;28;20064;-70
2023/09/03 19:48:38;;;;;;;;;;;;;;;21.81;85.88;102526.31;21106736;28;20184;-70
2023/09/03 19:58:39;;;;;;;1.85;1.20;;;;;;;21.76;85.69;102531.25;21099513;28;19942;-71
2023/09/03 20:08:41;;;;;;;1.50;1.02;;;;;;;21.74;85.29;102516.94;21079081;28;20047;-70
2023/09/03 20:18:43;;;;;;;1.25;0.90;;;;;;;21.71;85.04;102525.34;21114762;28;20108;-70
2023/09/03 20:28:45;;;;;;;1.00;0.80;;;;;;;21.69;84.77;102533.56;21107214;28;20416;-70
2023/09/03 20:38:48;;;;;;;1.33;0.90;;;;;;;21.66;84.36;102538.38;21115100;28;20466;-70
2023/09/03 20:48:50;;;;;;;2.05;0.82;;;;;;;21.64;84.22;102545.75;21111670;28;20055;-70
2023/09/03 20:58:53;;;;;;;5.05;1.00;;;;;;;21.61;83.91;102529.69;21075835;28;20060;-70
2023/09/03 21:08:55;;;;;;;1.23;1.10;;;;;;;21.58;83.42;102537.09;21106764;28;20051;-70
2023/09/03 21:18:57;;;;;;;1.15;0.80;;;;;;;21.51;83.14;102525.00;21112122;28;20062;-70
2023/09/03 21:28:58;;;;;;;1.30;0.80;;;;;;;21.55;82.91;102531.91;21102696;28;20517;-70
2023/09/03 21:39:00;;;;;;;2.28;1.13;;;;;;;21.52;82.39;102534.88;21096859;28;20067;-70
2023/09/03 21:49:02;;;;;;;0.93;0.73;;;;;;;21.52;82.37;102532.16;21091914;28;20278;-70
2023/09/03 21:59:04;;;;;;;1.02;0.93;;;;;;;21.52;82.12;102532.16;21094592;28;20059;-70
2023/09/03 22:09:05;;;;;;;1.45;1.02;;;;;;;21.53;81.88;102543.88;21093256;28;20116;-70
2023/09/03 22:19:08;;;;;;;1.30;0.82;;;;;;;21.53;81.63;102544.72;21074948;28;20093;-70
2023/09/03 22:29:26;;;;;;;0.70;0.70;;;;;;;21.52;81.21;102536.72;21096293;28;20047;-70
2023/09/03 22:39:29;;;;;;;0.60;0.57;;;;;;;21.51;80.61;102546.69;21107882;28;20040;-70
2023/09/03 22:49:31;;;;;;;0.68;0.60;;;;;;;21.50;80.55;102555.81;21116623;28;20064;-70
2023/09/03 22:59:35;;;;;;;1.77;0.82;;;;;;;21.48;80.09;102565.06;21109772;28;20101;-70
2023/09/03 23:09:37;;;;;;;0.90;0.70;;;;;;;21.46;79.72;102551.59;21112854;28;20116;-70
2023/09/03 23:19:38;;;;;;;0.60;0.50;;;;;;;21.44;79.31;102561.72;21120679;28;20060;-70
2023/09/03 23:29:43;;;;;;;0.77;0.50;;;;;;;21.42;78.94;102564.53;21107433;28;20040;-70
2023/09/03 23:39:45;;;;;;;0.98;0.70;;;;;;;21.40;78.75;102565.63;21106762;28;20048;-70
2023/09/03 23:49:46;;;;;;;0.68;0.43;;;;;;;21.38;78.44;102564.91;21106723;27;20047;-70
2023/09/03 23:59:48;;;;;;;0.70;0.60;;;;;;;21.36;78.16;102564.16;21106498;28;20652;-70
